createdAt,value
2023-04-22T00:00:47.801Z,129.50
2023-04-22T00:01:47.829Z,128.55
2023-04-22T00:02:47.935Z,129.22
2023-04-22T00:03:48.999Z,130.35
2023-04-22T00:04:48.176Z,129.21
2023-04-22T00:05:47.985Z,129.25
2023-04-22T00:06:47.965Z,128.86
2023-04-22T00:07:47.980Z,128.51
2023-04-22T00:08:48.014Z,128.40
2023-04-22T00:09:48.043Z,129.91
2023-04-22T00:10:48.066Z,129.63
2023-04-22T00:11:48.099Z,129.42
2023-04-22T00:12:48.129Z,128.72
2023-04-22T00:13:48.156Z,129.58
2023-04-22T00:14:48.173Z,127.88
2023-04-22T00:15:48.399Z,127.55
2023-04-22T00:16:48.344Z,128.59
2023-04-22T00:17:48.293Z,128.26
2023-04-22T00:18:48.289Z,127.82
2023-04-22T00:19:48.320Z,128.18
2023-04-22T00:20:48.351Z,127.59
2023-04-22T00:21:48.370Z,128.44
2023-04-22T00:22:48.406Z,127.89
2023-04-22T00:23:48.420Z,129.23
2023-04-22T00:24:48.451Z,128.56
2023-04-22T00:25:48.490Z,129.13
2023-04-22T00:26:48.509Z,127.48
2023-04-22T00:27:48.548Z,128.18
2023-04-22T00:28:48.575Z,126.48
2023-04-22T00:29:48.601Z,128.23
2023-04-22T00:30:48.631Z,127.04
2023-04-22T00:31:48.856Z,126.89
2023-04-22T00:32:48.686Z,125.82
2023-04-22T00:33:48.710Z,127.79
2023-04-22T00:34:48.728Z,127.65
2023-04-22T00:35:48.756Z,127.33
2023-04-22T00:36:48.782Z,128.03
2023-04-22T00:37:48.857Z,125.92
2023-04-22T00:38:48.818Z,126.80
2023-04-22T00:39:48.858Z,126.50
2023-04-22T00:40:48.886Z,126.93
2023-04-22T00:41:48.911Z,126.59
2023-04-22T00:42:48.947Z,126.66
2023-04-22T00:43:48.980Z,127.62
2023-04-22T00:44:49.006Z,127.66
2023-04-22T00:45:49.052Z,128.05
2023-04-22T00:46:49.103Z,127.76
2023-04-22T00:47:49.374Z,126.95
2023-04-22T00:48:49.137Z,126.98
2023-04-22T00:49:49.157Z,126.36
2023-04-22T00:50:49.188Z,126.42
2023-04-22T00:51:49.231Z,126.02
2023-04-22T00:52:49.262Z,127.40
2023-04-22T00:53:49.278Z,126.85
2023-04-22T00:54:49.315Z,126.99
2023-04-22T00:55:49.336Z,125.30
2023-04-22T00:56:49.882Z,125.89
2023-04-22T00:57:49.388Z,125.34
2023-04-22T00:58:49.414Z,125.25
2023-04-22T00:59:49.437Z,127.09
2023-04-22T01:00:49.518Z,125.54
2023-04-22T01:01:49.550Z,126.17
2023-04-22T01:02:49.661Z,127.37
2023-04-22T01:03:49.864Z,126.18
2023-04-22T01:04:49.606Z,126.70
2023-04-22T01:05:49.654Z,126.61
2023-04-22T01:06:49.667Z,126.20
2023-04-22T01:07:49.781Z,125.60
2023-04-22T01:08:49.735Z,126.75
2023-04-22T01:09:50.464Z,126.59
2023-04-22T01:10:49.857Z,125.41
2023-04-22T01:11:49.843Z,125.11
2023-04-22T01:12:49.878Z,125.68
2023-04-22T01:13:49.979Z,125.47
2023-04-22T01:14:49.926Z,125.75
2023-04-22T01:15:49.961Z,124.44
2023-04-22T01:16:50.081Z,124.70
2023-04-22T01:17:50.098Z,124.70
2023-04-22T01:18:50.061Z,125.70
2023-04-22T01:19:50.101Z,125.49
2023-04-22T01:20:50.143Z,125.71
2023-04-22T01:21:50.176Z,124.61
2023-04-22T01:22:50.208Z,125.74
2023-04-22T01:23:50.239Z,126.05
2023-04-22T01:24:50.977Z,124.97
2023-04-22T01:25:50.314Z,125.00
2023-04-22T01:26:50.342Z,124.80
2023-04-22T01:27:50.374Z,125.08
2023-04-22T01:28:50.403Z,124.75
2023-04-22T01:29:50.443Z,124.73
2023-04-22T01:30:50.506Z,124.50
2023-04-22T01:31:50.610Z,123.83
2023-04-22T01:32:50.646Z,124.50
2023-04-22T01:33:50.596Z,124.70
2023-04-22T01:34:50.627Z,122.69
2023-04-22T01:35:50.667Z,124.77
2023-04-22T01:36:50.691Z,124.32
2023-04-22T01:37:50.752Z,123.29
2023-04-22T01:38:50.785Z,125.11
2023-04-22T01:39:50.858Z,124.82
2023-04-22T01:40:50.851Z,125.03
2023-04-22T01:41:50.887Z,124.40
2023-04-22T01:42:50.931Z,123.64
2023-04-22T01:43:51.036Z,124.75
2023-04-22T01:44:50.992Z,123.74
2023-04-22T01:45:51.052Z,123.89
2023-04-22T01:46:51.083Z,124.31
2023-04-22T01:47:51.196Z,124.18
2023-04-22T01:48:51.169Z,123.83
2023-04-22T01:49:51.195Z,125.13
2023-04-22T01:50:51.310Z,124.38
2023-04-22T01:51:51.263Z,123.77
2023-04-22T01:52:51.297Z,123.13
2023-04-22T01:53:51.333Z,121.92
2023-04-22T01:54:51.365Z,123.93
2023-04-22T01:55:51.486Z,123.82
2023-04-22T01:56:51.476Z,123.24
2023-04-22T01:57:51.496Z,124.05
2023-04-22T01:58:51.509Z,124.08
2023-04-22T01:59:51.545Z,123.25
2023-04-22T02:00:51.579Z,122.65
2023-04-22T02:01:51.659Z,123.52
2023-04-22T02:02:51.783Z,122.77
2023-04-22T02:03:51.839Z,122.78
2023-04-22T02:04:51.817Z,120.99
2023-04-22T02:05:51.777Z,122.51
2023-04-22T02:06:51.811Z,120.51
2023-04-22T02:07:51.853Z,121.51
2023-04-22T02:08:52.419Z,121.97
2023-04-22T02:09:51.933Z,120.97
2023-04-22T02:10:51.972Z,122.44
2023-04-22T02:11:52.003Z,121.30
2023-04-22T02:12:52.055Z,121.15
2023-04-22T02:13:52.090Z,121.44
2023-04-22T02:14:52.124Z,122.34
2023-04-22T02:15:52.280Z,121.19
2023-04-22T02:16:52.192Z,121.11
2023-04-22T02:17:52.232Z,121.14
2023-04-22T02:18:52.927Z,120.39
2023-04-22T02:19:52.332Z,120.93
2023-04-22T02:20:52.345Z,119.61
2023-04-22T02:21:52.368Z,120.22
2023-04-22T02:22:52.408Z,121.30
2023-04-22T02:23:52.441Z,120.87
2023-04-22T02:24:52.499Z,120.19
2023-04-22T02:25:52.927Z,120.79
2023-04-22T02:26:52.560Z,120.91
2023-04-22T02:27:52.595Z,121.13
2023-04-22T02:28:52.642Z,120.74
2023-04-22T02:29:52.737Z,117.83
2023-04-22T02:30:52.819Z,120.05
2023-04-22T02:31:52.849Z,120.89
2023-04-22T02:32:52.881Z,121.56
2023-04-22T02:33:52.842Z,118.70
2023-04-22T02:34:52.883Z,119.67
2023-04-22T02:35:52.912Z,119.56
2023-04-22T02:36:52.952Z,117.51
2023-04-22T02:37:52.992Z,118.51
2023-04-22T02:38:53.133Z,117.83
2023-04-22T02:39:53.098Z,117.90
2023-04-22T02:40:53.142Z,117.32
2023-04-22T02:41:53.159Z,118.04
2023-04-22T02:42:53.211Z,117.16
2023-04-22T02:43:53.252Z,116.10
2023-04-22T02:44:53.291Z,116.33
2023-04-22T02:45:53.331Z,117.26
2023-04-22T02:46:53.449Z,117.01
2023-04-22T02:47:53.432Z,116.30
2023-04-22T02:48:53.518Z,116.65
2023-04-22T02:49:53.491Z,115.37
2023-04-22T02:50:53.931Z,113.93
2023-04-22T02:51:53.570Z,113.22
2023-04-22T02:52:53.611Z,114.42
2023-04-22T02:53:53.664Z,114.36
2023-04-22T02:54:53.706Z,113.71
2023-04-22T02:55:53.753Z,114.07
2023-04-22T02:56:53.801Z,113.27
2023-04-22T02:57:53.850Z,113.40
2023-04-22T02:58:53.964Z,111.71
2023-04-22T02:59:53.917Z,111.11
2023-04-22T03:00:54.001Z,111.99
2023-04-22T03:01:54.112Z,112.03
2023-04-22T03:02:54.183Z,111.07
2023-04-22T03:03:54.389Z,110.66
2023-04-22T03:04:54.166Z,111.64
2023-04-22T03:05:54.202Z,110.75
2023-04-22T03:06:54.242Z,110.90
2023-04-22T03:07:54.280Z,110.65
2023-04-22T03:08:54.329Z,111.28
2023-04-22T03:09:54.439Z,111.18
2023-04-22T03:10:54.428Z,109.21
2023-04-22T03:11:54.463Z,110.49
2023-04-22T03:12:54.565Z,110.23
2023-04-22T03:13:54.550Z,111.66
2023-04-22T03:14:54.591Z,110.15
2023-04-22T03:15:54.644Z,108.85
2023-04-22T03:16:54.731Z,110.89
2023-04-22T03:17:54.752Z,110.44
2023-04-22T03:18:54.760Z,109.26
2023-04-22T03:19:54.806Z,110.59
2023-04-22T03:20:54.851Z,109.68
2023-04-22T03:21:54.888Z,110.52
2023-04-22T03:22:54.926Z,110.10
2023-04-22T03:23:54.982Z,110.44
2023-04-22T03:24:55.017Z,109.33
2023-04-22T03:25:55.070Z,110.18
2023-04-22T03:26:55.105Z,109.89
2023-04-22T03:27:55.160Z,108.83
2023-04-22T03:28:55.192Z,109.23
2023-04-22T03:29:55.242Z,108.93
2023-04-22T03:30:55.292Z,109.43
2023-04-22T03:31:55.361Z,108.21
2023-04-22T03:32:55.409Z,108.03
2023-04-22T03:33:55.421Z,110.45
2023-04-22T03:34:55.474Z,109.02
2023-04-22T03:35:55.532Z,108.96
2023-04-22T03:36:55.572Z,107.16
2023-04-22T03:37:55.614Z,109.60
2023-04-22T03:38:55.658Z,109.61
2023-04-22T03:39:55.710Z,108.44
2023-04-22T03:40:55.753Z,108.02
2023-04-22T03:41:55.789Z,108.66
2023-04-22T03:42:55.893Z,108.64
2023-04-22T03:43:55.900Z,108.20
2023-04-22T03:44:55.929Z,107.17
2023-04-22T03:45:56.077Z,108.85
2023-04-22T03:46:56.961Z,108.28
2023-04-22T03:47:56.147Z,106.74
2023-04-22T03:48:56.122Z,107.56
2023-04-22T03:49:56.181Z,108.28
2023-04-22T03:50:56.230Z,107.54
2023-04-22T03:51:56.291Z,107.28
2023-04-22T03:52:56.340Z,107.02
2023-04-22T03:53:56.386Z,106.17
2023-04-22T03:54:56.416Z,106.18
2023-04-22T03:55:56.459Z,105.81
2023-04-22T03:56:56.522Z,104.78
2023-04-22T03:57:56.561Z,104.92
2023-04-22T03:58:56.807Z,104.17
2023-04-22T03:59:56.650Z,104.66
2023-04-22T04:00:56.711Z,102.24
2023-04-22T04:01:56.774Z,105.61
2023-04-22T04:02:56.937Z,102.80
2023-04-22T04:03:56.972Z,102.21
2023-04-22T04:04:57.210Z,101.92
2023-04-22T04:05:57.175Z,101.83
2023-04-22T04:06:56.985Z,101.17
2023-04-22T04:07:57.047Z,101.13
2023-04-22T04:08:57.087Z,100.30
2023-04-22T04:09:57.142Z,100.01
2023-04-22T04:10:57.192Z,97.77
2023-04-22T04:11:58.004Z,97.79
2023-04-22T04:12:57.278Z,96.93
2023-04-22T04:13:57.337Z,96.82
2023-04-22T04:14:57.395Z,96.24
2023-04-22T04:15:57.561Z,96.67
2023-04-22T04:16:57.496Z,96.49
2023-04-22T04:17:57.573Z,96.79
2023-04-22T04:18:57.592Z,97.19
2023-04-22T04:19:57.637Z,95.41
2023-04-22T04:20:57.694Z,94.65
2023-04-22T04:21:57.749Z,94.56
2023-04-22T04:22:57.789Z,96.05
2023-04-22T04:23:57.858Z,93.41
2023-04-22T04:24:57.946Z,95.77
2023-04-22T04:25:57.965Z,94.58
2023-04-22T04:26:58.007Z,95.71
2023-04-22T04:27:58.070Z,93.92
2023-04-22T04:28:58.178Z,92.20
2023-04-22T04:29:58.165Z,93.32
2023-04-22T04:30:58.265Z,94.59
2023-04-22T04:31:58.285Z,93.34
2023-04-22T04:32:58.415Z,94.30
2023-04-22T04:33:58.397Z,91.75
2023-04-22T04:34:58.453Z,91.45
2023-04-22T04:35:58.503Z,91.89
2023-04-22T04:36:58.569Z,92.54
2023-04-22T04:37:58.625Z,91.35
2023-04-22T04:38:58.673Z,91.21
2023-04-22T04:39:58.949Z,89.88
2023-04-22T04:40:58.782Z,91.62
2023-04-22T04:41:59.069Z,88.49
2023-04-22T04:42:58.915Z,88.18
2023-04-22T04:43:58.956Z,87.12
2023-04-22T04:44:59.007Z,88.34
2023-04-22T04:45:59.062Z,88.83
2023-04-22T04:46:59.175Z,89.14
2023-04-22T04:47:59.192Z,86.65
2023-04-22T04:48:59.220Z,86.63
2023-04-22T04:49:59.270Z,86.18
2023-04-22T04:50:59.337Z,87.00
2023-04-22T04:51:59.373Z,86.54
2023-04-22T04:52:59.435Z,85.18
2023-04-22T04:53:59.501Z,84.52
2023-04-22T04:54:59.573Z,83.55
2023-04-22T04:55:59.614Z,85.64
2023-04-22T04:56:59.673Z,83.53
2023-04-22T04:57:59.724Z,83.24
2023-04-22T04:58:59.783Z,81.99
2023-04-22T04:59:59.839Z,83.29
2023-04-22T05:00:59.906Z,80.99
2023-04-22T05:02:00.059Z,82.45
2023-04-22T05:03:00.249Z,82.61
2023-04-22T05:04:00.253Z,82.24
2023-04-22T05:05:00.267Z,82.15
2023-04-22T05:06:00.203Z,81.05
2023-04-22T05:07:00.249Z,84.24
2023-04-22T05:08:00.319Z,81.78
2023-04-22T05:09:00.363Z,81.12
2023-04-22T05:10:00.442Z,81.78
2023-04-22T05:11:00.475Z,79.93
2023-04-22T05:12:00.533Z,78.87
2023-04-22T05:13:03.485Z,80.14
2023-04-22T05:14:00.583Z,81.64
2023-04-22T05:15:00.581Z,80.08
2023-04-22T05:16:00.625Z,79.51
2023-04-22T05:17:00.756Z,79.35
2023-04-22T05:18:00.589Z,78.53
2023-04-22T05:19:00.557Z,78.98
2023-04-22T05:20:00.556Z,79.29
2023-04-22T05:21:00.546Z,78.27
2023-04-22T05:22:00.531Z,76.91
2023-04-22T05:23:00.527Z,76.76
2023-04-22T05:24:00.522Z,77.39
2023-04-22T05:25:00.518Z,77.65
2023-04-22T05:26:00.516Z,77.48
2023-04-22T05:27:00.592Z,76.87
2023-04-22T05:28:00.497Z,76.67
2023-04-22T05:29:00.506Z,75.98
2023-04-22T05:30:00.488Z,74.53
2023-04-22T05:31:00.479Z,76.56
2023-04-22T05:32:00.524Z,75.99
2023-04-22T05:33:00.527Z,74.90
2023-04-22T05:34:00.452Z,74.10
2023-04-22T05:35:00.441Z,74.54
2023-04-22T05:36:00.423Z,73.83
2023-04-22T05:37:00.422Z,74.66
2023-04-22T05:38:00.402Z,73.11
2023-04-22T05:39:00.406Z,74.02
2023-04-22T05:40:00.402Z,72.81
2023-04-22T05:41:00.386Z,72.86
2023-04-22T05:42:00.369Z,71.45
2023-04-22T05:43:00.423Z,72.43
2023-04-22T05:44:00.473Z,70.74
2023-04-22T05:45:00.534Z,71.90
2023-04-22T05:46:00.722Z,71.00
2023-04-22T05:47:00.647Z,70.10
2023-04-22T05:48:00.719Z,70.04
2023-04-22T05:49:00.755Z,67.58
2023-04-22T05:50:00.811Z,70.49
2023-04-22T05:51:00.937Z,68.79
2023-04-22T05:52:00.957Z,69.24
2023-04-22T05:53:01.002Z,68.18
2023-04-22T05:54:01.055Z,68.79
2023-04-22T05:55:01.120Z,67.91
2023-04-22T05:56:01.184Z,66.29
2023-04-22T05:57:01.248Z,67.62
2023-04-22T05:58:01.316Z,66.75
2023-04-22T05:59:01.401Z,66.30
2023-04-22T06:00:01.418Z,66.99
2023-04-22T06:01:01.489Z,65.72
2023-04-22T06:02:01.574Z,65.24
2023-04-22T06:03:01.710Z,66.28
2023-04-22T06:04:01.782Z,65.82
2023-04-22T06:05:01.980Z,64.60
2023-04-22T06:06:02.037Z,64.72
2023-04-22T06:07:01.840Z,65.50
2023-04-22T06:08:01.973Z,64.30
2023-04-22T06:09:02.015Z,64.54
2023-04-22T06:10:05.427Z,61.94
2023-04-22T06:11:02.023Z,63.16
2023-04-22T06:12:02.021Z,62.92
2023-04-22T06:13:02.017Z,60.96
2023-04-22T06:14:02.012Z,60.22
2023-04-22T06:15:01.988Z,59.27
2023-04-22T06:16:02.098Z,60.00
2023-04-22T06:17:01.993Z,60.51
2023-04-22T06:18:02.065Z,59.97
2023-04-22T06:19:01.990Z,59.70
2023-04-22T06:20:01.982Z,58.13
2023-04-22T06:21:01.989Z,59.17
2023-04-22T06:22:01.986Z,57.76
2023-04-22T06:23:01.973Z,57.93
2023-04-22T06:24:01.966Z,58.51
2023-04-22T06:25:01.964Z,59.27
2023-04-22T06:26:01.965Z,58.26
2023-04-22T06:27:01.971Z,57.57
2023-04-22T06:28:01.978Z,58.02
2023-04-22T06:29:01.953Z,58.51
2023-04-22T06:30:01.948Z,58.57
2023-04-22T06:31:02.109Z,57.85
2023-04-22T06:32:02.505Z,57.93
2023-04-22T06:33:01.935Z,56.73
2023-04-22T06:34:01.913Z,57.03
2023-04-22T06:35:01.997Z,56.17
2023-04-22T06:36:01.901Z,55.50
2023-04-22T06:37:01.906Z,56.11
2023-04-22T06:38:01.912Z,55.28
2023-04-22T06:39:02.506Z,55.39
2023-04-22T06:40:01.998Z,55.98
2023-04-22T06:41:02.037Z,56.27
2023-04-22T06:42:02.093Z,54.26
2023-04-22T06:43:02.159Z,55.37
2023-04-22T06:44:02.233Z,55.94
2023-04-22T06:45:02.274Z,54.02
2023-04-22T06:46:02.330Z,53.47
2023-04-22T06:47:02.440Z,56.08
2023-04-22T06:48:02.453Z,53.94
2023-04-22T06:49:02.510Z,56.09
2023-04-22T06:50:02.585Z,52.75
2023-04-22T06:51:02.620Z,52.58
2023-04-22T06:52:02.657Z,54.74
2023-04-22T06:53:02.717Z,52.79
2023-04-22T06:54:02.780Z,53.47
2023-04-22T06:55:03.569Z,52.20
2023-04-22T06:56:02.910Z,52.35
2023-04-22T06:57:02.949Z,52.51
2023-04-22T06:58:03.004Z,52.51
2023-04-22T06:59:03.070Z,50.94
2023-04-22T07:00:03.109Z,52.85
2023-04-22T07:01:03.167Z,51.75
2023-04-22T07:02:03.331Z,52.47
2023-04-22T07:03:03.430Z,51.36
2023-04-22T07:04:03.354Z,52.41
2023-04-22T07:05:03.372Z,49.47
2023-04-22T07:06:03.429Z,51.00
2023-04-22T07:07:03.489Z,50.26
2023-04-22T07:08:03.543Z,50.12
2023-04-22T07:09:03.583Z,51.28
2023-04-22T07:10:03.645Z,50.06
2023-04-22T07:11:03.702Z,48.76
2023-04-22T07:12:03.742Z,49.18
2023-04-22T07:13:03.843Z,48.90
2023-04-22T07:14:03.856Z,47.63
2023-04-22T07:15:03.920Z,48.10
2023-04-22T07:16:03.976Z,46.61
2023-04-22T07:17:04.003Z,48.96
2023-04-22T07:18:04.109Z,48.16
2023-04-22T07:19:04.182Z,48.70
2023-04-22T07:20:04.156Z,48.66
2023-04-22T07:21:04.217Z,48.98
2023-04-22T07:22:04.290Z,48.49
2023-04-22T07:23:04.354Z,48.67
2023-04-22T07:24:04.361Z,46.98
2023-04-22T07:25:04.401Z,47.23
2023-04-22T07:26:04.451Z,46.84
2023-04-22T07:27:04.589Z,46.83
2023-04-22T07:28:04.561Z,48.14
2023-04-22T07:29:04.610Z,46.93
2023-04-22T07:30:04.663Z,45.09
2023-04-22T07:31:04.702Z,44.83
2023-04-22T07:32:04.783Z,45.95
2023-04-22T07:33:04.816Z,45.40
2023-04-22T07:34:04.853Z,46.30
2023-04-22T07:35:04.881Z,49.81
2023-04-22T07:36:04.929Z,45.69
2023-04-22T07:37:05.029Z,47.72
2023-04-22T07:38:05.427Z,48.44
2023-04-22T07:39:05.056Z,45.97
2023-04-22T07:40:05.101Z,48.92
2023-04-22T07:41:05.160Z,48.90
2023-04-22T07:42:05.178Z,48.15
2023-04-22T07:43:05.220Z,50.08
2023-04-22T07:44:05.267Z,49.64
2023-04-22T07:45:05.331Z,51.54
2023-04-22T07:46:05.388Z,48.50
2023-04-22T07:47:05.479Z,51.43
2023-04-22T07:48:05.506Z,50.53
2023-04-22T07:49:05.506Z,48.75
2023-04-22T07:50:05.552Z,48.35
2023-04-22T07:51:05.586Z,47.11
2023-04-22T07:52:05.636Z,50.32
2023-04-22T07:53:05.679Z,50.33
2023-04-22T07:54:05.732Z,51.46
2023-04-22T07:55:05.771Z,48.05
2023-04-22T07:56:05.821Z,51.25
2023-04-22T07:57:05.862Z,50.36
2023-04-22T07:58:05.909Z,52.06
2023-04-22T07:59:05.969Z,51.92
2023-04-22T08:00:06.009Z,52.86
2023-04-22T08:01:06.129Z,51.65
2023-04-22T08:02:06.167Z,50.87
2023-04-22T08:03:06.408Z,52.12
2023-04-22T08:04:06.449Z,51.31
2023-04-22T08:05:07.108Z,52.01
2023-04-22T08:06:06.287Z,50.86
2023-04-22T08:07:26.328Z,54.05
2023-04-22T08:08:07.317Z,54.11
2023-04-22T08:09:06.300Z,54.08
2023-04-22T08:10:06.296Z,53.10
2023-04-22T08:11:06.306Z,52.99
2023-04-22T08:12:06.281Z,51.42
2023-04-22T08:13:06.277Z,50.13
2023-04-22T08:14:06.270Z,51.24
2023-04-22T08:15:06.349Z,52.62
2023-04-22T08:16:06.289Z,51.52
2023-04-22T08:17:06.233Z,53.21
2023-04-22T08:18:06.266Z,50.12
2023-04-22T08:19:06.295Z,51.17
2023-04-22T08:20:07.985Z,50.89
2023-04-22T08:21:06.379Z,50.81
2023-04-22T08:22:06.421Z,50.95
2023-04-22T08:23:06.465Z,50.31
2023-04-22T08:24:06.515Z,51.75
2023-04-22T08:25:06.528Z,52.18
2023-04-22T08:26:06.577Z,51.46
2023-04-22T08:27:07.614Z,53.03
2023-04-22T08:28:06.675Z,52.76
2023-04-22T08:29:06.704Z,50.46
2023-04-22T08:30:06.753Z,51.57
2023-04-22T08:31:06.802Z,50.85
2023-04-22T08:32:06.811Z,48.71
2023-04-22T08:33:06.849Z,49.13
2023-04-22T08:34:06.887Z,50.12
2023-04-22T08:35:06.988Z,49.23
2023-04-22T08:36:06.948Z,49.64
2023-04-22T08:37:06.996Z,50.08
2023-04-22T08:38:07.029Z,49.69
2023-04-22T08:39:07.064Z,49.59
2023-04-22T08:40:07.105Z,50.77
2023-04-22T08:41:07.573Z,50.50
2023-04-22T08:42:07.235Z,50.51
2023-04-22T08:43:07.217Z,50.21
2023-04-22T08:44:07.259Z,50.62
2023-04-22T08:45:07.308Z,49.40
2023-04-22T08:46:07.407Z,50.47
2023-04-22T08:47:07.489Z,49.91
2023-04-22T08:48:07.477Z,48.58
2023-04-22T08:49:07.467Z,47.05
2023-04-22T08:50:07.496Z,51.40
2023-04-22T08:51:07.620Z,49.70
2023-04-22T08:52:07.581Z,50.37
2023-04-22T08:53:07.613Z,49.01
2023-04-22T08:54:07.665Z,51.14
2023-04-22T08:55:07.691Z,51.55
2023-04-22T08:56:07.736Z,48.33
2023-04-22T08:57:07.764Z,50.06
2023-04-22T08:58:07.798Z,50.12
2023-04-22T08:59:07.851Z,49.98
2023-04-22T09:00:07.869Z,51.25
2023-04-22T09:01:07.913Z,49.90
2023-04-22T09:02:08.076Z,48.43
2023-04-22T09:03:08.130Z,48.69
2023-04-22T09:04:08.146Z,49.31
2023-04-22T09:05:08.069Z,50.81
2023-04-22T09:06:08.117Z,48.74
2023-04-22T09:07:08.155Z,48.41
2023-04-22T09:08:08.234Z,50.08
2023-04-22T09:09:08.235Z,50.62
2023-04-22T09:10:08.284Z,50.16
2023-04-22T09:11:08.329Z,50.70
2023-04-22T09:12:09.062Z,48.17
2023-04-22T09:13:08.371Z,50.16
2023-04-22T09:14:08.422Z,50.35
2023-04-22T09:15:08.466Z,49.19
2023-04-22T09:16:08.520Z,49.29
2023-04-22T09:17:08.541Z,49.09
2023-04-22T09:18:08.580Z,48.72
2023-04-22T09:19:08.620Z,49.63
2023-04-22T09:20:08.689Z,49.20
2023-04-22T09:21:08.714Z,48.76
2023-04-22T09:22:08.767Z,50.92
2023-04-22T09:23:08.791Z,48.44
2023-04-22T09:24:08.819Z,49.28
2023-04-22T09:25:08.856Z,50.29
2023-04-22T09:26:08.904Z,50.29
2023-04-22T09:27:08.937Z,49.23
2023-04-22T09:28:09.565Z,50.58
2023-04-22T09:29:09.002Z,51.64
2023-04-22T09:30:09.041Z,49.11
2023-04-22T09:31:09.061Z,47.77
2023-04-22T09:32:09.223Z,52.72
2023-04-22T09:33:09.190Z,50.27
2023-04-22T09:34:09.193Z,50.18
2023-04-22T09:35:09.206Z,49.70
2023-04-22T09:36:09.280Z,49.66
2023-04-22T09:37:09.289Z,48.96
2023-04-22T09:38:09.321Z,47.87
2023-04-22T09:39:09.340Z,48.90
2023-04-22T09:40:09.385Z,49.46
2023-04-22T09:41:09.412Z,48.04
2023-04-22T09:42:10.070Z,50.93
2023-04-22T09:43:09.543Z,47.79
2023-04-22T09:44:09.515Z,49.29
2023-04-22T09:45:09.610Z,51.26
2023-04-22T09:46:09.614Z,49.26
2023-04-22T09:47:09.602Z,48.58
2023-04-22T09:48:09.663Z,50.21
2023-04-22T09:49:09.681Z,48.07
2023-04-22T09:50:09.713Z,49.86
2023-04-22T09:51:09.750Z,48.29
2023-04-22T09:52:09.797Z,51.18
2023-04-22T09:53:09.811Z,49.17
2023-04-22T09:54:09.867Z,50.55
2023-04-22T09:55:09.931Z,49.22
2023-04-22T09:56:09.908Z,50.63
2023-04-22T09:57:09.960Z,49.30
2023-04-22T09:58:09.984Z,49.04
2023-04-22T09:59:10.009Z,48.31
2023-04-22T10:00:10.031Z,52.11
2023-04-22T10:01:10.114Z,51.45
2023-04-22T10:02:11.118Z,51.73
2023-04-22T10:03:11.216Z,49.67
2023-04-22T10:04:10.223Z,50.31
2023-04-22T10:05:11.126Z,51.78
2023-04-22T10:06:10.230Z,49.58
2023-04-22T10:07:10.256Z,49.27
2023-04-22T10:08:10.319Z,48.26
2023-04-22T10:09:10.322Z,49.27
2023-04-22T10:10:10.338Z,51.00
2023-04-22T10:11:10.390Z,50.89
2023-04-22T10:12:10.497Z,51.42
2023-04-22T10:13:10.510Z,49.39
2023-04-22T10:14:10.490Z,50.49
2023-04-22T10:15:10.501Z,51.17
2023-04-22T10:16:10.544Z,51.09
2023-04-22T10:17:10.577Z,51.44
2023-04-22T10:18:10.605Z,52.03
2023-04-22T10:19:10.616Z,52.22
2023-04-22T10:20:10.655Z,52.03
2023-04-22T10:21:10.667Z,49.98
2023-04-22T10:22:10.705Z,51.50
2023-04-22T10:23:10.726Z,51.30
2023-04-22T10:24:10.758Z,52.00
2023-04-22T10:25:10.870Z,52.88
2023-04-22T10:26:10.906Z,51.93
2023-04-22T10:27:10.866Z,51.72
2023-04-22T10:28:10.864Z,51.30
2023-04-22T10:29:10.957Z,51.16
2023-04-22T10:30:11.583Z,51.47
2023-04-22T10:31:10.955Z,51.11
2023-04-22T10:32:11.195Z,49.49
2023-04-22T10:33:10.974Z,52.71
2023-04-22T10:34:11.117Z,51.95
2023-04-22T10:35:11.016Z,50.66
2023-04-22T10:36:11.044Z,50.69
2023-04-22T10:37:11.455Z,54.29
2023-04-22T10:38:11.153Z,49.39
2023-04-22T10:39:11.082Z,50.28
2023-04-22T10:40:11.185Z,50.78
2023-04-22T10:41:11.163Z,51.18
2023-04-22T10:42:11.240Z,50.14
2023-04-22T10:43:11.187Z,49.27
2023-04-22T10:44:11.189Z,52.72
2023-04-22T10:45:11.161Z,50.43
2023-04-22T10:46:11.249Z,51.68
2023-04-22T10:47:11.192Z,51.81
2023-04-22T10:48:11.211Z,54.03
2023-04-22T10:49:11.288Z,53.12
2023-04-22T10:50:11.241Z,53.71
2023-04-22T10:51:11.483Z,50.64
2023-04-22T10:52:11.301Z,52.84
2023-04-22T10:53:11.242Z,51.41
2023-04-22T10:54:11.308Z,52.38
2023-04-22T10:55:11.342Z,52.38
2023-04-22T10:56:11.314Z,50.19
2023-04-22T10:57:11.272Z,52.20
2023-04-22T10:58:11.306Z,50.50
2023-04-22T10:59:11.332Z,52.70
2023-04-22T11:00:11.318Z,51.22
2023-04-22T11:01:11.301Z,53.50
2023-04-22T11:02:11.388Z,50.77
2023-04-22T11:03:11.413Z,50.64
2023-04-22T11:04:11.427Z,50.22
2023-04-22T11:05:12.191Z,52.51
2023-04-22T11:06:11.611Z,51.11
2023-04-22T11:07:11.416Z,51.96
2023-04-22T11:08:11.265Z,51.84
2023-04-22T11:09:11.267Z,52.17
2023-04-22T11:10:12.173Z,50.55
2023-04-22T11:11:11.434Z,52.49
2023-04-22T11:12:11.263Z,50.94
2023-04-22T11:13:11.249Z,51.91
2023-04-22T11:14:11.241Z,52.95
2023-04-22T11:15:11.237Z,52.47
2023-04-22T11:16:11.394Z,51.92
2023-04-22T11:17:11.222Z,51.13
2023-04-22T11:18:11.218Z,53.66
2023-04-22T11:19:11.206Z,54.44
2023-04-22T11:20:11.190Z,52.85
2023-04-22T11:21:11.184Z,52.25
2023-04-22T11:22:11.169Z,53.38
2023-04-22T11:23:11.160Z,54.54
2023-04-22T11:24:11.138Z,55.57
2023-04-22T11:25:11.122Z,53.49
2023-04-22T11:26:11.132Z,53.44
2023-04-22T11:27:11.116Z,54.10
2023-04-22T11:28:11.086Z,53.69
2023-04-22T11:29:11.086Z,54.27
2023-04-22T11:30:11.077Z,53.70
2023-04-22T11:31:11.114Z,53.96
2023-04-22T11:32:11.056Z,55.21
2023-04-22T11:33:11.044Z,53.88
2023-04-22T11:34:11.043Z,56.47
2023-04-22T11:35:11.020Z,53.47
2023-04-22T11:36:11.046Z,55.91
2023-04-22T11:37:11.004Z,53.78
2023-04-22T11:38:11.018Z,55.04
2023-04-22T11:39:10.989Z,53.40
2023-04-22T11:40:21.697Z,53.69
2023-04-22T11:41:12.157Z,53.85
2023-04-22T11:42:11.127Z,53.88
2023-04-22T11:43:11.160Z,53.93
2023-04-22T11:44:11.203Z,54.25
2023-04-22T11:45:11.174Z,52.44
2023-04-22T11:46:11.223Z,51.75
2023-04-22T11:47:11.134Z,51.36
2023-04-22T11:48:11.152Z,53.72
2023-04-22T11:49:11.719Z,51.84
2023-04-22T11:50:11.099Z,51.95
2023-04-22T11:51:11.100Z,52.26
2023-04-22T11:52:11.041Z,51.74
2023-04-22T11:53:11.035Z,51.74
2023-04-22T11:54:10.997Z,51.72
2023-04-22T11:55:10.994Z,50.81
2023-04-22T11:56:10.973Z,51.84
2023-04-22T11:57:10.945Z,49.47
2023-04-22T11:58:10.925Z,52.07
2023-04-22T11:59:10.915Z,50.50
2023-04-22T12:00:10.888Z,51.70
2023-04-22T12:01:10.902Z,48.86
2023-04-22T12:02:11.037Z,47.84
2023-04-22T12:03:12.610Z,50.46
2023-04-22T12:04:11.056Z,51.85
2023-04-22T12:05:10.879Z,51.45
2023-04-22T12:06:10.825Z,52.17
2023-04-22T12:07:10.831Z,49.41
2023-04-22T12:08:10.803Z,51.75
2023-04-22T12:09:12.072Z,48.59
2023-04-22T12:10:10.736Z,48.76
2023-04-22T12:11:10.723Z,49.26
2023-04-22T12:12:10.695Z,49.82
2023-04-22T12:13:10.652Z,49.76
2023-04-22T12:14:10.628Z,53.04
2023-04-22T12:15:12.093Z,51.34
2023-04-22T12:16:10.645Z,51.50
2023-04-22T12:17:10.563Z,51.75
2023-04-22T12:18:10.532Z,51.96
2023-04-22T12:19:10.486Z,50.44
2023-04-22T12:20:10.454Z,52.06
2023-04-22T12:21:10.443Z,50.00
2023-04-22T12:22:10.413Z,51.59
2023-04-22T12:23:10.387Z,52.65
2023-04-22T12:24:10.379Z,49.70
2023-04-22T12:25:10.354Z,53.49
2023-04-22T12:26:10.324Z,50.15
2023-04-22T12:27:10.305Z,48.68
2023-04-22T12:28:10.274Z,50.72
2023-04-22T12:29:10.259Z,51.08
2023-04-22T12:30:10.235Z,49.23
2023-04-22T12:31:10.338Z,49.64
2023-04-22T12:32:10.260Z,48.83
2023-04-22T12:33:10.168Z,49.31
2023-04-22T12:34:10.197Z,50.19
2023-04-22T12:35:10.217Z,49.91
2023-04-22T12:36:10.634Z,50.19
2023-04-22T12:37:10.075Z,49.26
2023-04-22T12:38:10.045Z,49.18
2023-04-22T12:39:10.024Z,48.65
2023-04-22T12:40:09.998Z,48.44
2023-04-22T12:41:09.969Z,48.71
2023-04-22T12:42:09.944Z,48.47
2023-04-22T12:43:09.899Z,48.04
2023-04-22T12:44:09.883Z,51.54
2023-04-22T12:45:10.648Z,48.75